sensor_id;sensor_type;location;lat;lon;timestamp;temperature;humidity
46091;DHT22;31826;53.572;10.170;2022-11-15T00:00:28;5.60;99.90
46091;DHT22;31826;53.572;10.170;2022-11-15T00:02:54;5.70;99.90
46091;DHT22;31826;53.572;10.170;2022-11-15T00:05:20;5.60;99.90
46091;DHT22;31826;53.572;10.170;2022-11-15T00:07:46;5.60;99.90
46091;DHT22;31826;53.572;10.170;2022-11-15T00:10:12;5.60;99.90
46091;DHT22;31826;53.572;10.170;2022-11-15T00:12:38;5.60;99.90
46091;DHT22;31826;53.572;10.170;2022-11-15T00:15:04;5.60;99.90
46091;DHT22;31826;53.572;10.170;2022-11-15T00:17:30;5.60;99.90
46091;DHT22;31826;53.572;10.170;2022-11-15T00:19:56;5.60;99.90
46091;DHT22;31826;53.572;10.170;2022-11-15T00:22:22;5.60;99.90
46091;DHT22;31826;53.572;10.170;2022-11-15T00:24:47;5.60;99.90
46091;DHT22;31826;53.572;10.170;2022-11-15T00:27:13;5.50;99.90
46091;DHT22;31826;53.572;10.170;2022-11-15T00:29:39;5.50;99.90
46091;DHT22;31826;53.572;10.170;2022-11-15T00:32:09;5.50;99.90
46091;DHT22;31826;53.572;10.170;2022-11-15T00:34:35;5.50;99.90
46091;DHT22;31826;53.572;10.170;2022-11-15T00:37:01;5.40;99.90
46091;DHT22;31826;53.572;10.170;2022-11-15T00:39:27;5.50;99.90
46091;DHT22;31826;53.572;10.170;2022-11-15T00:41:52;5.50;99.90
46091;DHT22;31826;53.572;10.170;2022-11-15T00:44:18;5.50;99.90
46091;DHT22;31826;53.572;10.170;2022-11-15T00:46:44;5.50;99.90
46091;DHT22;31826;53.572;10.170;2022-11-15T00:49:10;5.50;99.90
46091;DHT22;31826;53.572;10.170;2022-11-15T00:51:35;5.60;99.90
46091;DHT22;31826;53.572;10.170;2022-11-15T00:54:01;5.50;99.90
46091;DHT22;31826;53.572;10.170;2022-11-15T00:56:27;5.50;99.90
46091;DHT22;31826;53.572;10.170;2022-11-15T00:58:53;5.50;99.90
46091;DHT22;31826;53.572;10.170;2022-11-15T01:01:19;5.50;99.90
46091;DHT22;31826;53.572;10.170;2022-11-15T01:03:44;5.50;99.90
46091;DHT22;31826;53.572;10.170;2022-11-15T01:06:10;5.50;99.90
46091;DHT22;31826;53.572;10.170;2022-11-15T01:08:41;5.50;99.90
46091;DHT22;31826;53.572;10.170;2022-11-15T01:11:10;5.50;99.90
46091;DHT22;31826;53.572;10.170;2022-11-15T01:13:38;5.50;99.90
46091;DHT22;31826;53.572;10.170;2022-11-15T01:16:15;5.50;99.90
46091;DHT22;31826;53.572;10.170;2022-11-15T01:18:45;5.60;99.90
46091;DHT22;31826;53.572;10.170;2022-11-15T01:21:13;5.60;99.90
46091;DHT22;31826;53.572;10.170;2022-11-15T01:23:39;5.60;99.90
46091;DHT22;31826;53.572;10.170;2022-11-15T01:26:07;5.60;99.90
46091;DHT22;31826;53.572;10.170;2022-11-15T01:28:35;5.60;99.90
46091;DHT22;31826;53.572;10.170;2022-11-15T01:31:03;5.60;99.90
46091;DHT22;31826;53.572;10.170;2022-11-15T01:33:30;5.50;99.90
46091;DHT22;31826;53.572;10.170;2022-11-15T01:35:55;5.50;99.90
46091;DHT22;31826;53.572;10.170;2022-11-15T01:38:22;5.50;99.90
46091;DHT22;31826;53.572;10.170;2022-11-15T01:40:48;5.50;99.90
46091;DHT22;31826;53.572;10.170;2022-11-15T01:43:25;5.40;99.90
46091;DHT22;31826;53.572;10.170;2022-11-15T01:45:56;5.40;99.90
46091;DHT22;31826;53.572;10.170;2022-11-15T01:48:28;5.40;99.90
46091;DHT22;31826;53.572;10.170;2022-11-15T01:50:56;5.30;99.90
46091;DHT22;31826;53.572;10.170;2022-11-15T01:53:23;5.40;99.90
46091;DHT22;31826;53.572;10.170;2022-11-15T01:55:50;5.30;99.90
46091;DHT22;31826;53.572;10.170;2022-11-15T01:58:16;5.30;99.90
46091;DHT22;31826;53.572;10.170;2022-11-15T02:00:42;5.30;99.90
46091;DHT22;31826;53.572;10.170;2022-11-15T02:03:07;5.30;99.90
46091;DHT22;31826;53.572;10.170;2022-11-15T02:05:36;5.20;99.90
46091;DHT22;31826;53.572;10.170;2022-11-15T02:08:02;5.30;99.90
46091;DHT22;31826;53.572;10.170;2022-11-15T02:10:28;5.30;99.90
46091;DHT22;31826;53.572;10.170;2022-11-15T02:12:55;5.30;99.90
46091;DHT22;31826;53.572;10.170;2022-11-15T02:15:26;5.20;99.90
46091;DHT22;31826;53.572;10.170;2022-11-15T02:20:51;5.20;99.90
46091;DHT22;31826;53.572;10.170;2022-11-15T02:37:29;5.00;99.90
46091;DHT22;31826;53.572;10.170;2022-11-15T02:40:17;5.00;99.90
46091;DHT22;31826;53.572;10.170;2022-11-15T02:43:00;5.00;99.90
46091;DHT22;31826;53.572;10.170;2022-11-15T02:45:49;4.90;99.90
46091;DHT22;31826;53.572;10.170;2022-11-15T02:48:17;5.00;99.90
46091;DHT22;31826;53.572;10.170;2022-11-15T02:50:44;5.00;99.90
46091;DHT22;31826;53.572;10.170;2022-11-15T02:53:10;5.00;99.90
46091;DHT22;31826;53.572;10.170;2022-11-15T02:55:38;4.90;99.90
46091;DHT22;31826;53.572;10.170;2022-11-15T03:03:54;4.90;99.90
46091;DHT22;31826;53.572;10.170;2022-11-15T03:09:35;4.80;99.90
46091;DHT22;31826;53.572;10.170;2022-11-15T03:12:26;4.80;99.90
46091;DHT22;31826;53.572;10.170;2022-11-15T03:14:57;5.00;99.90
46091;DHT22;31826;53.572;10.170;2022-11-15T03:17:33;4.90;99.90
46091;DHT22;31826;53.572;10.170;2022-11-15T03:20:03;4.90;99.90
46091;DHT22;31826;53.572;10.170;2022-11-15T03:22:33;4.90;99.90
46091;DHT22;31826;53.572;10.170;2022-11-15T03:25:04;4.80;99.90
46091;DHT22;31826;53.572;10.170;2022-11-15T03:27:35;4.90;99.90
46091;DHT22;31826;53.572;10.170;2022-11-15T03:30:05;4.90;99.90
46091;DHT22;31826;53.572;10.170;2022-11-15T03:32:35;4.90;99.90
46091;DHT22;31826;53.572;10.170;2022-11-15T03:35:17;4.80;99.90
46091;DHT22;31826;53.572;10.170;2022-11-15T03:40:41;4.90;99.90
46091;DHT22;31826;53.572;10.170;2022-11-15T03:46:11;4.80;99.90
46091;DHT22;31826;53.572;10.170;2022-11-15T03:48:46;4.80;99.90
46091;DHT22;31826;53.572;10.170;2022-11-15T03:51:14;4.80;99.90
46091;DHT22;31826;53.572;10.170;2022-11-15T03:53:40;4.80;99.90
46091;DHT22;31826;53.572;10.170;2022-11-15T03:56:06;4.70;99.90
46091;DHT22;31826;53.572;10.170;2022-11-15T03:58:32;4.80;99.90
46091;DHT22;31826;53.572;10.170;2022-11-15T04:00:58;4.70;99.90
46091;DHT22;31826;53.572;10.170;2022-11-15T04:03:25;4.80;99.90
46091;DHT22;31826;53.572;10.170;2022-11-15T04:05:51;4.80;99.90
46091;DHT22;31826;53.572;10.170;2022-11-15T04:08:16;4.70;99.90
46091;DHT22;31826;53.572;10.170;2022-11-15T04:10:42;4.80;99.90
46091;DHT22;31826;53.572;10.170;2022-11-15T04:13:08;4.80;99.90
46091;DHT22;31826;53.572;10.170;2022-11-15T04:15:34;4.80;99.90
46091;DHT22;31826;53.572;10.170;2022-11-15T04:18:00;4.80;99.90
46091;DHT22;31826;53.572;10.170;2022-11-15T04:20:28;4.80;99.90
46091;DHT22;31826;53.572;10.170;2022-11-15T04:23:20;4.80;99.90
46091;DHT22;31826;53.572;10.170;2022-11-15T04:26:12;4.80;99.90
46091;DHT22;31826;53.572;10.170;2022-11-15T04:28:40;4.80;99.90
46091;DHT22;31826;53.572;10.170;2022-11-15T04:31:25;4.90;99.90
46091;DHT22;31826;53.572;10.170;2022-11-15T04:33:52;4.80;99.90
46091;DHT22;31826;53.572;10.170;2022-11-15T04:36:18;4.90;99.90
46091;DHT22;31826;53.572;10.170;2022-11-15T04:39:16;4.90;99.90
46091;DHT22;31826;53.572;10.170;2022-11-15T04:41:41;5.00;99.90
46091;DHT22;31826;53.572;10.170;2022-11-15T04:44:07;5.00;99.90
46091;DHT22;31826;53.572;10.170;2022-11-15T04:46:33;5.00;99.90
46091;DHT22;31826;53.572;10.170;2022-11-15T04:48:58;5.20;99.90
46091;DHT22;31826;53.572;10.170;2022-11-15T04:51:24;5.10;99.90
46091;DHT22;31826;53.572;10.170;2022-11-15T04:53:50;5.10;99.90
46091;DHT22;31826;53.572;10.170;2022-11-15T04:56:16;5.10;99.90
46091;DHT22;31826;53.572;10.170;2022-11-15T04:58:41;5.10;99.90
46091;DHT22;31826;53.572;10.170;2022-11-15T05:01:12;5.10;99.90
46091;DHT22;31826;53.572;10.170;2022-11-15T05:03:43;5.10;99.90
46091;DHT22;31826;53.572;10.170;2022-11-15T05:06:28;5.10;99.90
46091;DHT22;31826;53.572;10.170;2022-11-15T05:08:54;5.10;99.90
46091;DHT22;31826;53.572;10.170;2022-11-15T05:11:20;5.20;99.90
46091;DHT22;31826;53.572;10.170;2022-11-15T05:13:46;5.10;99.90
46091;DHT22;31826;53.572;10.170;2022-11-15T05:16:12;5.10;99.90
46091;DHT22;31826;53.572;10.170;2022-11-15T05:18:38;5.10;99.90
46091;DHT22;31826;53.572;10.170;2022-11-15T05:21:10;5.20;99.90
46091;DHT22;31826;53.572;10.170;2022-11-15T05:23:36;5.20;99.90
46091;DHT22;31826;53.572;10.170;2022-11-15T05:26:02;5.30;99.90
46091;DHT22;31826;53.572;10.170;2022-11-15T05:28:28;5.30;99.90
46091;DHT22;31826;53.572;10.170;2022-11-15T05:31:03;5.40;99.90
46091;DHT22;31826;53.572;10.170;2022-11-15T05:33:29;5.40;99.90
46091;DHT22;31826;53.572;10.170;2022-11-15T05:36:41;5.40;99.90
46091;DHT22;31826;53.572;10.170;2022-11-15T05:38:49;5.50;99.90
46091;DHT22;31826;53.572;10.170;2022-11-15T05:41:17;5.50;99.90
46091;DHT22;31826;53.572;10.170;2022-11-15T05:43:44;5.50;99.90
46091;DHT22;31826;53.572;10.170;2022-11-15T05:46:11;5.50;99.90
46091;DHT22;31826;53.572;10.170;2022-11-15T05:48:40;5.50;99.90
46091;DHT22;31826;53.572;10.170;2022-11-15T05:51:07;5.60;99.90
46091;DHT22;31826;53.572;10.170;2022-11-15T05:53:33;5.60;99.90
46091;DHT22;31826;53.572;10.170;2022-11-15T05:56:00;5.60;99.90
46091;DHT22;31826;53.572;10.170;2022-11-15T05:58:26;5.70;99.90
46091;DHT22;31826;53.572;10.170;2022-11-15T06:00:51;5.70;99.90
46091;DHT22;31826;53.572;10.170;2022-11-15T06:03:17;5.80;99.90
46091;DHT22;31826;53.572;10.170;2022-11-15T06:05:43;5.70;99.90
46091;DHT22;31826;53.572;10.170;2022-11-15T06:08:08;5.70;99.90
46091;DHT22;31826;53.572;10.170;2022-11-15T06:10:34;5.70;99.90
46091;DHT22;31826;53.572;10.170;2022-11-15T06:13:02;5.70;99.90
46091;DHT22;31826;53.572;10.170;2022-11-15T06:15:28;5.80;99.90
46091;DHT22;31826;53.572;10.170;2022-11-15T06:17:57;5.70;99.90
46091;DHT22;31826;53.572;10.170;2022-11-15T06:20:24;5.70;99.90
46091;DHT22;31826;53.572;10.170;2022-11-15T06:22:50;5.80;99.90
46091;DHT22;31826;53.572;10.170;2022-11-15T06:25:16;5.80;99.90
46091;DHT22;31826;53.572;10.170;2022-11-15T06:27:42;5.80;99.90
46091;DHT22;31826;53.572;10.170;2022-11-15T06:30:08;5.80;99.90
46091;DHT22;31826;53.572;10.170;2022-11-15T06:32:33;5.90;99.90
46091;DHT22;31826;53.572;10.170;2022-11-15T06:34:59;5.80;99.90
46091;DHT22;31826;53.572;10.170;2022-11-15T06:37:25;5.80;99.90
46091;DHT22;31826;53.572;10.170;2022-11-15T06:39:50;5.80;99.90
46091;DHT22;31826;53.572;10.170;2022-11-15T06:42:16;5.80;99.90
46091;DHT22;31826;53.572;10.170;2022-11-15T06:44:42;5.90;99.90
46091;DHT22;31826;53.572;10.170;2022-11-15T06:47:07;5.90;99.90
46091;DHT22;31826;53.572;10.170;2022-11-15T06:49:33;5.90;99.90
46091;DHT22;31826;53.572;10.170;2022-11-15T06:51:59;5.90;99.90
46091;DHT22;31826;53.572;10.170;2022-11-15T06:54:25;5.90;99.90
46091;DHT22;31826;53.572;10.170;2022-11-15T06:56:50;5.80;99.90
46091;DHT22;31826;53.572;10.170;2022-11-15T06:59:16;5.90;99.90
46091;DHT22;31826;53.572;10.170;2022-11-15T07:01:42;5.80;99.90
46091;DHT22;31826;53.572;10.170;2022-11-15T07:04:07;5.80;99.90
46091;DHT22;31826;53.572;10.170;2022-11-15T07:06:33;5.80;99.90
46091;DHT22;31826;53.572;10.170;2022-11-15T07:08:59;5.80;99.90
46091;DHT22;31826;53.572;10.170;2022-11-15T07:11:24;5.80;99.90
46091;DHT22;31826;53.572;10.170;2022-11-15T07:13:50;5.90;99.90
46091;DHT22;31826;53.572;10.170;2022-11-15T07:16:16;5.90;99.90
46091;DHT22;31826;53.572;10.170;2022-11-15T07:18:41;5.90;99.90
46091;DHT22;31826;53.572;10.170;2022-11-15T07:21:09;5.90;99.90
46091;DHT22;31826;53.572;10.170;2022-11-15T07:23:39;5.90;99.90
46091;DHT22;31826;53.572;10.170;2022-11-15T07:26:05;5.90;99.90
46091;DHT22;31826;53.572;10.170;2022-11-15T07:28:31;5.90;99.90
46091;DHT22;31826;53.572;10.170;2022-11-15T07:30:57;5.90;99.90
46091;DHT22;31826;53.572;10.170;2022-11-15T07:33:23;6.00;99.90
46091;DHT22;31826;53.572;10.170;2022-11-15T07:35:49;6.00;99.90
46091;DHT22;31826;53.572;10.170;2022-11-15T07:38:15;6.00;99.90
46091;DHT22;31826;53.572;10.170;2022-11-15T07:40:45;6.00;99.90
46091;DHT22;31826;53.572;10.170;2022-11-15T07:43:10;6.00;99.90
46091;DHT22;31826;53.572;10.170;2022-11-15T07:45:44;6.00;99.90
46091;DHT22;31826;53.572;10.170;2022-11-15T07:48:10;6.10;99.90
46091;DHT22;31826;53.572;10.170;2022-11-15T07:50:36;6.10;99.90
46091;DHT22;31826;53.572;10.170;2022-11-15T07:53:02;6.00;99.90
46091;DHT22;31826;53.572;10.170;2022-11-15T07:55:28;6.10;99.90
46091;DHT22;31826;53.572;10.170;2022-11-15T07:58:21;6.20;99.90
46091;DHT22;31826;53.572;10.170;2022-11-15T08:00:46;6.20;99.90
46091;DHT22;31826;53.572;10.170;2022-11-15T08:03:14;6.20;99.90
46091;DHT22;31826;53.572;10.170;2022-11-15T08:05:41;6.20;99.90
46091;DHT22;31826;53.572;10.170;2022-11-15T08:08:09;6.30;99.90
46091;DHT22;31826;53.572;10.170;2022-11-15T08:10:35;6.30;99.90
46091;DHT22;31826;53.572;10.170;2022-11-15T08:13:06;6.30;99.90
46091;DHT22;31826;53.572;10.170;2022-11-15T08:15:33;6.40;99.90
46091;DHT22;31826;53.572;10.170;2022-11-15T08:18:00;6.40;99.90
46091;DHT22;31826;53.572;10.170;2022-11-15T08:20:28;6.40;99.90
46091;DHT22;31826;53.572;10.170;2022-11-15T08:23:01;6.40;99.90
46091;DHT22;31826;53.572;10.170;2022-11-15T08:25:28;6.50;99.90
46091;DHT22;31826;53.572;10.170;2022-11-15T08:27:56;6.50;99.90
46091;DHT22;31826;53.572;10.170;2022-11-15T08:30:22;6.50;99.90
46091;DHT22;31826;53.572;10.170;2022-11-15T08:32:49;6.60;99.90
46091;DHT22;31826;53.572;10.170;2022-11-15T08:35:16;6.60;99.90
46091;DHT22;31826;53.572;10.170;2022-11-15T08:37:42;6.60;99.90
46091;DHT22;31826;53.572;10.170;2022-11-15T08:40:08;6.60;99.90
46091;DHT22;31826;53.572;10.170;2022-11-15T08:42:35;6.70;99.90
46091;DHT22;31826;53.572;10.170;2022-11-15T08:45:01;6.70;99.90
46091;DHT22;31826;53.572;10.170;2022-11-15T08:47:27;6.70;99.90
46091;DHT22;31826;53.572;10.170;2022-11-15T08:49:53;6.70;99.90
46091;DHT22;31826;53.572;10.170;2022-11-15T08:52:19;6.80;99.90
46091;DHT22;31826;53.572;10.170;2022-11-15T08:54:44;6.80;99.90
46091;DHT22;31826;53.572;10.170;2022-11-15T08:57:10;6.80;99.90
46091;DHT22;31826;53.572;10.170;2022-11-15T08:59:37;6.80;99.90
46091;DHT22;31826;53.572;10.170;2022-11-15T09:02:03;6.80;99.90
46091;DHT22;31826;53.572;10.170;2022-11-15T09:04:29;6.80;99.90
46091;DHT22;31826;53.572;10.170;2022-11-15T09:06:55;6.80;99.90
46091;DHT22;31826;53.572;10.170;2022-11-15T09:09:21;6.90;99.90
46091;DHT22;31826;53.572;10.170;2022-11-15T09:11:46;6.90;99.90
46091;DHT22;31826;53.572;10.170;2022-11-15T09:14:13;7.00;99.90
46091;DHT22;31826;53.572;10.170;2022-11-15T09:16:39;7.10;99.90
46091;DHT22;31826;53.572;10.170;2022-11-15T09:19:06;7.10;99.90
46091;DHT22;31826;53.572;10.170;2022-11-15T09:21:33;7.10;99.90
46091;DHT22;31826;53.572;10.170;2022-11-15T09:23:59;7.20;99.90
46091;DHT22;31826;53.572;10.170;2022-11-15T09:26:25;7.30;99.90
46091;DHT22;31826;53.572;10.170;2022-11-15T09:28:50;7.30;99.90
46091;DHT22;31826;53.572;10.170;2022-11-15T09:31:16;7.40;99.90
46091;DHT22;31826;53.572;10.170;2022-11-15T09:33:45;7.50;99.90
46091;DHT22;31826;53.572;10.170;2022-11-15T09:36:11;7.50;99.90
46091;DHT22;31826;53.572;10.170;2022-11-15T09:38:38;7.50;99.90
46091;DHT22;31826;53.572;10.170;2022-11-15T09:43:52;7.80;99.90
46091;DHT22;31826;53.572;10.170;2022-11-15T09:49:18;8.00;99.90
46091;DHT22;31826;53.572;10.170;2022-11-15T09:51:47;8.00;99.90
46091;DHT22;31826;53.572;10.170;2022-11-15T09:59:51;8.20;99.90
46091;DHT22;31826;53.572;10.170;2022-11-15T10:02:42;8.20;99.90
46091;DHT22;31826;53.572;10.170;2022-11-15T10:05:13;8.40;99.90
46091;DHT22;31826;53.572;10.170;2022-11-15T10:10:42;8.50;99.90
46091;DHT22;31826;53.572;10.170;2022-11-15T10:13:22;8.60;99.90
46091;DHT22;31826;53.572;10.170;2022-11-15T10:15:50;8.60;99.90
46091;DHT22;31826;53.572;10.170;2022-11-15T10:18:52;8.80;99.90
46091;DHT22;31826;53.572;10.170;2022-11-15T10:21:25;8.70;99.90
46091;DHT22;31826;53.572;10.170;2022-11-15T10:23:55;8.80;99.90
46091;DHT22;31826;53.572;10.170;2022-11-15T10:26:21;8.90;99.90
46091;DHT22;31826;53.572;10.170;2022-11-15T10:28:48;8.80;99.90
46091;DHT22;31826;53.572;10.170;2022-11-15T10:31:27;8.90;99.90
46091;DHT22;31826;53.572;10.170;2022-11-15T10:36:53;8.90;99.90
46091;DHT22;31826;53.572;10.170;2022-11-15T10:39:19;8.90;99.90
46091;DHT22;31826;53.572;10.170;2022-11-15T10:41:45;8.90;99.90
46091;DHT22;31826;53.572;10.170;2022-11-15T10:47:20;9.00;99.90
46091;DHT22;31826;53.572;10.170;2022-11-15T10:50:05;9.00;99.90
46091;DHT22;31826;53.572;10.170;2022-11-15T10:52:32;9.00;99.90
46091;DHT22;31826;53.572;10.170;2022-11-15T10:55:27;9.00;99.90
46091;DHT22;31826;53.572;10.170;2022-11-15T10:58:02;9.00;99.90
46091;DHT22;31826;53.572;10.170;2022-11-15T11:00:35;9.00;99.90
46091;DHT22;31826;53.572;10.170;2022-11-15T11:03:05;9.00;99.90
46091;DHT22;31826;53.572;10.170;2022-11-15T11:05:35;9.10;99.90
46091;DHT22;31826;53.572;10.170;2022-11-15T11:10:32;9.20;99.90
46091;DHT22;31826;53.572;10.170;2022-11-15T11:13:30;9.20;99.90
46091;DHT22;31826;53.572;10.170;2022-11-15T11:21:18;9.40;99.90
46091;DHT22;31826;53.572;10.170;2022-11-15T11:24:05;9.40;99.90
46091;DHT22;31826;53.572;10.170;2022-11-15T11:32:14;9.60;99.90
46091;DHT22;31826;53.572;10.170;2022-11-15T11:35:24;9.60;99.90
46091;DHT22;31826;53.572;10.170;2022-11-15T11:40:49;9.70;99.90
46091;DHT22;31826;53.572;10.170;2022-11-15T11:53:46;9.90;99.90
46091;DHT22;31826;53.572;10.170;2022-11-15T11:56:29;9.80;99.90
46091;DHT22;31826;53.572;10.170;2022-11-15T11:59:28;9.90;99.90
46091;DHT22;31826;53.572;10.170;2022-11-15T12:01:58;9.90;99.90
46091;DHT22;31826;53.572;10.170;2022-11-15T12:04:35;10.00;99.90
46091;DHT22;31826;53.572;10.170;2022-11-15T12:07:33;10.00;99.90
46091;DHT22;31826;53.572;10.170;2022-11-15T12:13:10;10.00;99.90
46091;DHT22;31826;53.572;10.170;2022-11-15T12:15:59;10.10;99.90
46091;DHT22;31826;53.572;10.170;2022-11-15T12:18:28;10.10;99.90
46091;DHT22;31826;53.572;10.170;2022-11-15T12:20:59;10.10;99.90
46091;DHT22;31826;53.572;10.170;2022-11-15T12:23:34;10.10;99.90
46091;DHT22;31826;53.572;10.170;2022-11-15T12:26:09;10.20;99.90
46091;DHT22;31826;53.572;10.170;2022-11-15T12:29:02;10.20;99.90
46091;DHT22;31826;53.572;10.170;2022-11-15T12:31:35;10.20;99.90
46091;DHT22;31826;53.572;10.170;2022-11-15T12:36:49;10.20;99.90
46091;DHT22;31826;53.572;10.170;2022-11-15T12:39:16;10.20;99.90
46091;DHT22;31826;53.572;10.170;2022-11-15T12:59:55;10.80;99.90
46091;DHT22;31826;53.572;10.170;2022-11-15T13:02:24;10.80;99.90
46091;DHT22;31826;53.572;10.170;2022-11-15T13:04:52;10.80;99.90
46091;DHT22;31826;53.572;10.170;2022-11-15T13:17:43;10.90;99.90
46091;DHT22;31826;53.572;10.170;2022-11-15T13:25:21;10.80;99.90
46091;DHT22;31826;53.572;10.170;2022-11-15T13:27:49;10.80;99.90
46091;DHT22;31826;53.572;10.170;2022-11-15T13:30:21;10.80;99.90
46091;DHT22;31826;53.572;10.170;2022-11-15T13:32:47;10.80;99.90
46091;DHT22;31826;53.572;10.170;2022-11-15T13:35:27;10.80;99.90
46091;DHT22;31826;53.572;10.170;2022-11-15T13:37:55;10.80;99.90
46091;DHT22;31826;53.572;10.170;2022-11-15T13:40:25;10.90;99.90
46091;DHT22;31826;53.572;10.170;2022-11-15T13:42:53;10.90;99.90
46091;DHT22;31826;53.572;10.170;2022-11-15T13:45:20;10.90;99.90
46091;DHT22;31826;53.572;10.170;2022-11-15T13:47:51;10.90;99.90
46091;DHT22;31826;53.572;10.170;2022-11-15T13:50:18;10.90;99.90
46091;DHT22;31826;53.572;10.170;2022-11-15T13:52:46;10.90;99.90
46091;DHT22;31826;53.572;10.170;2022-11-15T13:55:19;10.90;99.90
46091;DHT22;31826;53.572;10.170;2022-11-15T13:57:55;11.00;99.90
46091;DHT22;31826;53.572;10.170;2022-11-15T14:02:50;10.90;99.90
46091;DHT22;31826;53.572;10.170;2022-11-15T14:05:17;11.00;99.90
46091;DHT22;31826;53.572;10.170;2022-11-15T14:07:58;11.00;99.90
46091;DHT22;31826;53.572;10.170;2022-11-15T14:10:36;10.90;99.90
46091;DHT22;31826;53.572;10.170;2022-11-15T14:13:03;10.90;99.90
46091;DHT22;31826;53.572;10.170;2022-11-15T14:15:31;11.00;99.90
46091;DHT22;31826;53.572;10.170;2022-11-15T14:17:57;11.00;99.90
46091;DHT22;31826;53.572;10.170;2022-11-15T14:22:57;11.00;99.90
46091;DHT22;31826;53.572;10.170;2022-11-15T14:25:37;10.90;99.90
46091;DHT22;31826;53.572;10.170;2022-11-15T14:28:16;10.90;99.90
46091;DHT22;31826;53.572;10.170;2022-11-15T14:30:55;11.00;99.90
46091;DHT22;31826;53.572;10.170;2022-11-15T14:33:33;10.90;99.90
46091;DHT22;31826;53.572;10.170;2022-11-15T14:36:06;10.90;99.90
46091;DHT22;31826;53.572;10.170;2022-11-15T14:38:35;10.90;99.90
46091;DHT22;31826;53.572;10.170;2022-11-15T14:41:01;11.00;99.90
46091;DHT22;31826;53.572;10.170;2022-11-15T14:43:27;10.90;99.90
46091;DHT22;31826;53.572;10.170;2022-11-15T14:45:53;10.90;99.90
46091;DHT22;31826;53.572;10.170;2022-11-15T14:48:19;10.90;99.90
46091;DHT22;31826;53.572;10.170;2022-11-15T14:50:44;10.80;99.90
46091;DHT22;31826;53.572;10.170;2022-11-15T14:53:17;10.80;99.90
46091;DHT22;31826;53.572;10.170;2022-11-15T14:55:43;10.80;99.90
46091;DHT22;31826;53.572;10.170;2022-11-15T14:58:09;10.80;99.90
46091;DHT22;31826;53.572;10.170;2022-11-15T15:00:40;10.80;99.90
46091;DHT22;31826;53.572;10.170;2022-11-15T15:03:06;10.70;99.90
46091;DHT22;31826;53.572;10.170;2022-11-15T15:05:36;10.80;99.90
46091;DHT22;31826;53.572;10.170;2022-11-15T15:08:03;10.60;99.90
46091;DHT22;31826;53.572;10.170;2022-11-15T15:10:37;10.60;99.90
46091;DHT22;31826;53.572;10.170;2022-11-15T15:13:04;10.60;99.90
46091;DHT22;31826;53.572;10.170;2022-11-15T15:15:35;10.50;99.90
46091;DHT22;31826;53.572;10.170;2022-11-15T15:18:01;10.50;99.90
46091;DHT22;31826;53.572;10.170;2022-11-15T15:20:28;10.50;99.90
46091;DHT22;31826;53.572;10.170;2022-11-15T15:22:54;10.40;99.90
46091;DHT22;31826;53.572;10.170;2022-11-15T15:27:48;10.40;99.90
46091;DHT22;31826;53.572;10.170;2022-11-15T15:30:15;10.30;99.90
46091;DHT22;31826;53.572;10.170;2022-11-15T15:32:40;10.20;99.90
46091;DHT22;31826;53.572;10.170;2022-11-15T15:35:07;10.30;99.90
46091;DHT22;31826;53.572;10.170;2022-11-15T15:37:36;10.20;99.90
46091;DHT22;31826;53.572;10.170;2022-11-15T15:40:02;10.00;99.90
46091;DHT22;31826;53.572;10.170;2022-11-15T15:42:28;10.10;99.90
46091;DHT22;31826;53.572;10.170;2022-11-15T15:44:53;10.10;99.90
46091;DHT22;31826;53.572;10.170;2022-11-15T15:47:23;10.00;99.90
46091;DHT22;31826;53.572;10.170;2022-11-15T15:49:51;10.00;99.90
46091;DHT22;31826;53.572;10.170;2022-11-15T15:52:17;9.90;99.90
46091;DHT22;31826;53.572;10.170;2022-11-15T15:54:42;10.00;99.90
46091;DHT22;31826;53.572;10.170;2022-11-15T15:57:11;10.00;99.90
46091;DHT22;31826;53.572;10.170;2022-11-15T15:59:37;9.90;99.90
46091;DHT22;31826;53.572;10.170;2022-11-15T16:02:03;9.90;99.90
46091;DHT22;31826;53.572;10.170;2022-11-15T16:04:29;9.90;99.90
46091;DHT22;31826;53.572;10.170;2022-11-15T16:06:59;9.90;99.90
46091;DHT22;31826;53.572;10.170;2022-11-15T16:09:25;9.90;99.90
46091;DHT22;31826;53.572;10.170;2022-11-15T16:12:10;9.90;99.90
46091;DHT22;31826;53.572;10.170;2022-11-15T16:14:36;9.90;99.90
46091;DHT22;31826;53.572;10.170;2022-11-15T16:17:02;9.90;99.90
46091;DHT22;31826;53.572;10.170;2022-11-15T16:19:28;9.90;99.90
46091;DHT22;31826;53.572;10.170;2022-11-15T16:21:54;9.90;99.90
46091;DHT22;31826;53.572;10.170;2022-11-15T16:24:20;9.90;99.90
46091;DHT22;31826;53.572;10.170;2022-11-15T16:26:47;10.00;99.90
46091;DHT22;31826;53.572;10.170;2022-11-15T16:29:13;10.00;99.90
46091;DHT22;31826;53.572;10.170;2022-11-15T16:31:39;10.10;99.90
46091;DHT22;31826;53.572;10.170;2022-11-15T16:34:05;10.00;99.90
46091;DHT22;31826;53.572;10.170;2022-11-15T16:36:33;10.10;99.90
46091;DHT22;31826;53.572;10.170;2022-11-15T16:39:00;10.10;99.90
46091;DHT22;31826;53.572;10.170;2022-11-15T16:41:29;10.10;99.90
46091;DHT22;31826;53.572;10.170;2022-11-15T16:43:55;10.10;99.90
46091;DHT22;31826;53.572;10.170;2022-11-15T16:46:26;10.10;99.90
46091;DHT22;31826;53.572;10.170;2022-11-15T16:48:52;10.10;99.90
46091;DHT22;31826;53.572;10.170;2022-11-15T16:51:18;10.10;99.90
46091;DHT22;31826;53.572;10.170;2022-11-15T16:53:47;10.20;99.90
46091;DHT22;31826;53.572;10.170;2022-11-15T16:58:44;10.00;99.90
46091;DHT22;31826;53.572;10.170;2022-11-15T17:01:16;10.10;99.90
46091;DHT22;31826;53.572;10.170;2022-11-15T17:03:43;10.10;99.90
46091;DHT22;31826;53.572;10.170;2022-11-15T17:06:09;10.10;99.90
46091;DHT22;31826;53.572;10.170;2022-11-15T17:08:36;10.10;99.90
46091;DHT22;31826;53.572;10.170;2022-11-15T17:11:05;10.00;99.90
46091;DHT22;31826;53.572;10.170;2022-11-15T17:13:31;10.00;99.90
46091;DHT22;31826;53.572;10.170;2022-11-15T17:16:09;10.10;99.90
46091;DHT22;31826;53.572;10.170;2022-11-15T17:18:36;9.90;99.90
46091;DHT22;31826;53.572;10.170;2022-11-15T17:21:10;10.00;99.90
46091;DHT22;31826;53.572;10.170;2022-11-15T17:23:36;10.00;99.90
46091;DHT22;31826;53.572;10.170;2022-11-15T17:26:03;10.00;99.90
46091;DHT22;31826;53.572;10.170;2022-11-15T17:28:33;10.00;99.90
46091;DHT22;31826;53.572;10.170;2022-11-15T17:30:59;10.00;99.90
46091;DHT22;31826;53.572;10.170;2022-11-15T17:33:25;9.90;99.90
46091;DHT22;31826;53.572;10.170;2022-11-15T17:35:59;9.90;99.90
46091;DHT22;31826;53.572;10.170;2022-11-15T17:38:26;9.80;99.90
46091;DHT22;31826;53.572;10.170;2022-11-15T17:41:12;9.90;99.90
46091;DHT22;31826;53.572;10.170;2022-11-15T17:43:38;9.80;99.90
46091;DHT22;31826;53.572;10.170;2022-11-15T17:46:11;9.80;99.90
46091;DHT22;31826;53.572;10.170;2022-11-15T17:48:37;9.80;99.90